sensor_id;sensor_type;location;lat;lon;timestamp;temperature;humidity
65478;SHT31;53678;39.642;22.430;2024-01-15T00:02:08;1.79;89.14
65478;SHT31;53678;39.642;22.430;2024-01-15T00:04:40;1.79;89.24
65478;SHT31;53678;39.642;22.430;2024-01-15T00:07:07;1.60;88.89
65478;SHT31;53678;39.642;22.430;2024-01-15T00:09:34;1.60;89.90
65478;SHT31;53678;39.642;22.430;2024-01-15T00:12:00;1.64;90.56
65478;SHT31;53678;39.642;22.430;2024-01-15T00:14:27;1.69;90.51
65478;SHT31;53678;39.642;22.430;2024-01-15T00:16:53;1.76;90.58
65478;SHT31;53678;39.642;22.430;2024-01-15T00:19:21;1.86;90.86
65478;SHT31;53678;39.642;22.430;2024-01-15T00:21:47;1.90;90.80
65478;SHT31;53678;39.642;22.430;2024-01-15T00:24:14;1.91;90.79
65478;SHT31;53678;39.642;22.430;2024-01-15T00:26:40;1.98;89.99
65478;SHT31;53678;39.642;22.430;2024-01-15T00:29:09;1.84;89.82
65478;SHT31;53678;39.642;22.430;2024-01-15T00:31:35;1.86;90.22
65478;SHT31;53678;39.642;22.430;2024-01-15T00:34:01;1.91;90.60
65478;SHT31;53678;39.642;22.430;2024-01-15T00:36:27;2.04;90.45
65478;SHT31;53678;39.642;22.430;2024-01-15T00:38:53;2.20;90.47
65478;SHT31;53678;39.642;22.430;2024-01-15T00:41:19;2.22;90.00
65478;SHT31;53678;39.642;22.430;2024-01-15T00:43:45;2.24;90.09
65478;SHT31;53678;39.642;22.430;2024-01-15T00:46:11;2.34;90.27
65478;SHT31;53678;39.642;22.430;2024-01-15T00:48:37;2.45;90.17
65478;SHT31;53678;39.642;22.430;2024-01-15T00:51:06;2.56;89.96
65478;SHT31;53678;39.642;22.430;2024-01-15T00:53:32;2.67;89.95
65478;SHT31;53678;39.642;22.430;2024-01-15T00:55:59;2.79;89.63
65478;SHT31;53678;39.642;22.430;2024-01-15T00:58:26;2.77;88.95
65478;SHT31;53678;39.642;22.430;2024-01-15T01:00:52;2.71;88.56
65478;SHT31;53678;39.642;22.430;2024-01-15T01:03:17;2.59;88.55
65478;SHT31;53678;39.642;22.430;2024-01-15T01:05:44;2.53;88.74
65478;SHT31;53678;39.642;22.430;2024-01-15T01:08:10;2.50;89.08
65478;SHT31;53678;39.642;22.430;2024-01-15T01:10:36;2.31;88.49
65478;SHT31;53678;39.642;22.430;2024-01-15T01:13:01;2.18;88.80
65478;SHT31;53678;39.642;22.430;2024-01-15T01:15:27;2.17;89.17
65478;SHT31;53678;39.642;22.430;2024-01-15T01:17:53;2.21;89.68
65478;SHT31;53678;39.642;22.430;2024-01-15T01:20:18;2.29;89.88
65478;SHT31;53678;39.642;22.430;2024-01-15T01:22:44;2.49;90.22
65478;SHT31;53678;39.642;22.430;2024-01-15T01:25:09;2.55;89.57
65478;SHT31;53678;39.642;22.430;2024-01-15T01:27:35;2.59;89.12
65478;SHT31;53678;39.642;22.430;2024-01-15T01:30:01;2.25;88.62
65478;SHT31;53678;39.642;22.430;2024-01-15T01:32:27;2.07;90.06
65478;SHT31;53678;39.642;22.430;2024-01-15T01:34:53;2.03;89.55
65478;SHT31;53678;39.642;22.430;2024-01-15T01:37:19;1.93;88.80
65478;SHT31;53678;39.642;22.430;2024-01-15T01:39:45;1.94;89.14
65478;SHT31;53678;39.642;22.430;2024-01-15T01:42:11;1.88;88.70
65478;SHT31;53678;39.642;22.430;2024-01-15T01:44:37;1.90;88.65
65478;SHT31;53678;39.642;22.430;2024-01-15T01:47:03;1.70;88.40
65478;SHT31;53678;39.642;22.430;2024-01-15T01:49:29;1.64;88.78
65478;SHT31;53678;39.642;22.430;2024-01-15T01:52:00;1.53;89.50
65478;SHT31;53678;39.642;22.430;2024-01-15T01:54:29;1.62;90.21
65478;SHT31;53678;39.642;22.430;2024-01-15T01:56:56;1.74;90.06
65478;SHT31;53678;39.642;22.430;2024-01-15T01:59:23;1.74;90.11
65478;SHT31;53678;39.642;22.430;2024-01-15T02:01:51;1.80;90.07
65478;SHT31;53678;39.642;22.430;2024-01-15T02:04:18;1.88;89.77
65478;SHT31;53678;39.642;22.430;2024-01-15T02:06:43;1.79;88.69
65478;SHT31;53678;39.642;22.430;2024-01-15T02:09:09;1.52;88.80
65478;SHT31;53678;39.642;22.430;2024-01-15T02:11:36;1.46;90.51
65478;SHT31;53678;39.642;22.430;2024-01-15T02:14:03;1.50;90.38
65478;SHT31;53678;39.642;22.430;2024-01-15T02:16:28;1.63;89.95
65478;SHT31;53678;39.642;22.430;2024-01-15T02:18:54;1.64;89.70
65478;SHT31;53678;39.642;22.430;2024-01-15T02:21:20;1.66;89.40
65478;SHT31;53678;39.642;22.430;2024-01-15T02:23:45;1.62;89.33
65478;SHT31;53678;39.642;22.430;2024-01-15T02:26:12;1.55;89.15
65478;SHT31;53678;39.642;22.430;2024-01-15T02:28:37;1.34;89.87
65478;SHT31;53678;39.642;22.430;2024-01-15T02:31:03;1.35;90.00
65478;SHT31;53678;39.642;22.430;2024-01-15T02:33:29;1.40;90.22
65478;SHT31;53678;39.642;22.430;2024-01-15T02:35:54;1.59;90.01
65478;SHT31;53678;39.642;22.430;2024-01-15T02:38:21;1.58;88.71
65478;SHT31;53678;39.642;22.430;2024-01-15T02:40:49;1.04;90.38
65478;SHT31;53678;39.642;22.430;2024-01-15T02:43:15;0.71;91.68
65478;SHT31;53678;39.642;22.430;2024-01-15T02:45:40;0.35;93.29
65478;SHT31;53678;39.642;22.430;2024-01-15T02:48:06;0.46;94.36
65478;SHT31;53678;39.642;22.430;2024-01-15T02:50:32;0.60;94.29
65478;SHT31;53678;39.642;22.430;2024-01-15T02:52:57;0.59;93.17
65478;SHT31;53678;39.642;22.430;2024-01-15T02:55:23;0.59;93.78
65478;SHT31;53678;39.642;22.430;2024-01-15T02:57:49;0.56;93.67
65478;SHT31;53678;39.642;22.430;2024-01-15T03:00:14;0.61;94.88
65478;SHT31;53678;39.642;22.430;2024-01-15T03:02:41;0.70;94.08
65478;SHT31;53678;39.642;22.430;2024-01-15T03:05:09;0.91;94.57
65478;SHT31;53678;39.642;22.430;2024-01-15T03:07:35;1.17;94.26
65478;SHT31;53678;39.642;22.430;2024-01-15T03:10:01;1.38;93.71
65478;SHT31;53678;39.642;22.430;2024-01-15T03:12:27;1.45;92.82
65478;SHT31;53678;39.642;22.430;2024-01-15T03:14:52;1.59;92.14
65478;SHT31;53678;39.642;22.430;2024-01-15T03:17:18;1.58;90.51
65478;SHT31;53678;39.642;22.430;2024-01-15T03:19:44;1.29;90.73
65478;SHT31;53678;39.642;22.430;2024-01-15T03:22:09;1.40;91.73
65478;SHT31;53678;39.642;22.430;2024-01-15T03:24:35;1.42;91.50
65478;SHT31;53678;39.642;22.430;2024-01-15T03:27:02;1.42;91.64
65478;SHT31;53678;39.642;22.430;2024-01-15T03:29:27;1.18;91.76
65478;SHT31;53678;39.642;22.430;2024-01-15T03:31:53;1.01;92.32
65478;SHT31;53678;39.642;22.430;2024-01-15T03:34:19;0.87;92.67
65478;SHT31;53678;39.642;22.430;2024-01-15T03:36:45;0.90;93.19
65478;SHT31;53678;39.642;22.430;2024-01-15T03:39:10;1.08;93.07
65478;SHT31;53678;39.642;22.430;2024-01-15T03:41:37;1.17;92.46
65478;SHT31;53678;39.642;22.430;2024-01-15T03:44:03;1.01;91.95
65478;SHT31;53678;39.642;22.430;2024-01-15T03:46:29;0.83;92.60
65478;SHT31;53678;39.642;22.430;2024-01-15T03:48:54;0.63;93.20
65478;SHT31;53678;39.642;22.430;2024-01-15T03:51:20;0.54;93.56
65478;SHT31;53678;39.642;22.430;2024-01-15T03:53:46;0.63;93.27
65478;SHT31;53678;39.642;22.430;2024-01-15T03:56:12;0.61;93.23
65478;SHT31;53678;39.642;22.430;2024-01-15T03:58:38;0.57;93.08
65478;SHT31;53678;39.642;22.430;2024-01-15T04:01:12;0.63;93.14
65478;SHT31;53678;39.642;22.430;2024-01-15T04:03:37;0.78;93.00
65478;SHT31;53678;39.642;22.430;2024-01-15T04:06:04;0.90;92.72
65478;SHT31;53678;39.642;22.430;2024-01-15T04:08:30;1.01;92.33
65478;SHT31;53678;39.642;22.430;2024-01-15T04:10:56;1.12;92.09
65478;SHT31;53678;39.642;22.430;2024-01-15T04:13:22;1.21;91.47
65478;SHT31;53678;39.642;22.430;2024-01-15T04:15:47;1.22;91.44
65478;SHT31;53678;39.642;22.430;2024-01-15T04:18:13;1.25;91.31
65478;SHT31;53678;39.642;22.430;2024-01-15T04:20:39;1.36;91.35
65478;SHT31;53678;39.642;22.430;2024-01-15T04:23:05;1.36;90.83
65478;SHT31;53678;39.642;22.430;2024-01-15T04:25:30;1.43;90.51
65478;SHT31;53678;39.642;22.430;2024-01-15T04:27:56;1.45;90.53
65478;SHT31;53678;39.642;22.430;2024-01-15T04:30:22;1.43;90.39
65478;SHT31;53678;39.642;22.430;2024-01-15T04:32:48;1.43;90.54
65478;SHT31;53678;39.642;22.430;2024-01-15T04:35:14;1.43;90.29
65478;SHT31;53678;39.642;22.430;2024-01-15T04:37:40;1.52;90.55
65478;SHT31;53678;39.642;22.430;2024-01-15T04:40:07;1.62;90.17
65478;SHT31;53678;39.642;22.430;2024-01-15T04:42:32;1.69;89.75
65478;SHT31;53678;39.642;22.430;2024-01-15T04:44:59;1.80;89.79
65478;SHT31;53678;39.642;22.430;2024-01-15T04:47:24;1.93;89.26
65478;SHT31;53678;39.642;22.430;2024-01-15T04:49:50;1.96;88.79
65478;SHT31;53678;39.642;22.430;2024-01-15T04:52:16;2.04;89.11
65478;SHT31;53678;39.642;22.430;2024-01-15T04:54:42;2.14;89.05
65478;SHT31;53678;39.642;22.430;2024-01-15T04:57:08;2.25;88.47
65478;SHT31;53678;39.642;22.430;2024-01-15T04:59:33;2.39;88.10
65478;SHT31;53678;39.642;22.430;2024-01-15T05:01:59;2.38;87.89
65478;SHT31;53678;39.642;22.430;2024-01-15T05:04:25;2.35;88.09
65478;SHT31;53678;39.642;22.430;2024-01-15T05:06:52;2.32;87.95
65478;SHT31;53678;39.642;22.430;2024-01-15T05:09:18;2.27;88.00
65478;SHT31;53678;39.642;22.430;2024-01-15T05:11:44;2.25;88.36
65478;SHT31;53678;39.642;22.430;2024-01-15T05:14:10;2.25;88.58
65478;SHT31;53678;39.642;22.430;2024-01-15T05:16:38;2.35;88.90
65478;SHT31;53678;39.642;22.430;2024-01-15T05:19:04;2.42;88.71
65478;SHT31;53678;39.642;22.430;2024-01-15T05:21:29;2.39;88.78
65478;SHT31;53678;39.642;22.430;2024-01-15T05:23:55;2.48;88.82
65478;SHT31;53678;39.642;22.430;2024-01-15T05:26:21;2.53;88.43
65478;SHT31;53678;39.642;22.430;2024-01-15T05:28:47;2.39;88.00
65478;SHT31;53678;39.642;22.430;2024-01-15T05:31:13;2.29;87.96
65478;SHT31;53678;39.642;22.430;2024-01-15T05:33:38;2.13;88.10
65478;SHT31;53678;39.642;22.430;2024-01-15T05:36:05;2.18;88.48
65478;SHT31;53678;39.642;22.430;2024-01-15T05:38:30;2.22;88.57
65478;SHT31;53678;39.642;22.430;2024-01-15T05:40:56;2.25;88.18
65478;SHT31;53678;39.642;22.430;2024-01-15T05:43:22;2.27;87.94
65478;SHT31;53678;39.642;22.430;2024-01-15T05:45:47;2.28;87.71
65478;SHT31;53678;39.642;22.430;2024-01-15T05:48:13;2.27;88.16
65478;SHT31;53678;39.642;22.430;2024-01-15T05:50:39;2.28;87.89
65478;SHT31;53678;39.642;22.430;2024-01-15T05:53:04;2.71;91.51
65478;SHT31;53678;39.642;22.430;2024-01-15T05:55:30;2.44;87.69
65478;SHT31;53678;39.642;22.430;2024-01-15T05:57:56;2.22;88.00
65478;SHT31;53678;39.642;22.430;2024-01-15T06:00:22;2.27;88.74
65478;SHT31;53678;39.642;22.430;2024-01-15T06:02:47;2.38;88.13
65478;SHT31;53678;39.642;22.430;2024-01-15T06:05:13;2.49;87.92
65478;SHT31;53678;39.642;22.430;2024-01-15T06:07:39;2.55;87.22
65478;SHT31;53678;39.642;22.430;2024-01-15T06:10:05;2.66;87.33
65478;SHT31;53678;39.642;22.430;2024-01-15T06:12:30;2.94;86.72
65478;SHT31;53678;39.642;22.430;2024-01-15T06:14:57;3.65;86.35
65478;SHT31;53678;39.642;22.430;2024-01-15T06:17:23;3.82;84.35
65478;SHT31;53678;39.642;22.430;2024-01-15T06:19:49;4.25;82.95
65478;SHT31;53678;39.642;22.430;2024-01-15T06:22:14;3.96;82.28
65478;SHT31;53678;39.642;22.430;2024-01-15T06:24:41;3.82;83.12
65478;SHT31;53678;39.642;22.430;2024-01-15T06:27:06;3.71;83.29
65478;SHT31;53678;39.642;22.430;2024-01-15T06:29:32;3.55;84.08
65478;SHT31;53678;39.642;22.430;2024-01-15T06:31:58;3.23;84.82
65478;SHT31;53678;39.642;22.430;2024-01-15T06:34:23;3.20;85.78
65478;SHT31;53678;39.642;22.430;2024-01-15T06:36:49;3.24;85.60
65478;SHT31;53678;39.642;22.430;2024-01-15T06:39:15;3.27;85.57
65478;SHT31;53678;39.642;22.430;2024-01-15T06:41:40;3.27;85.32
65478;SHT31;53678;39.642;22.430;2024-01-15T06:44:10;3.34;85.15
65478;SHT31;53678;39.642;22.430;2024-01-15T06:46:42;3.35;84.84
65478;SHT31;53678;39.642;22.430;2024-01-15T06:49:08;3.28;85.35
65478;SHT31;53678;39.642;22.430;2024-01-15T06:51:35;3.11;86.14
65478;SHT31;53678;39.642;22.430;2024-01-15T06:54:01;3.16;86.43
65478;SHT31;53678;39.642;22.430;2024-01-15T06:56:26;3.24;85.89
65478;SHT31;53678;39.642;22.430;2024-01-15T06:58:52;3.37;85.43
65478;SHT31;53678;39.642;22.430;2024-01-15T07:01:17;3.39;85.33
65478;SHT31;53678;39.642;22.430;2024-01-15T07:03:43;3.48;84.85
65478;SHT31;53678;39.642;22.430;2024-01-15T07:06:10;3.58;84.60
65478;SHT31;53678;39.642;22.430;2024-01-15T07:08:36;3.69;83.61
65478;SHT31;53678;39.642;22.430;2024-01-15T07:11:06;3.75;83.42
65478;SHT31;53678;39.642;22.430;2024-01-15T07:13:32;3.68;83.26
65478;SHT31;53678;39.642;22.430;2024-01-15T07:15:58;3.79;82.62
65478;SHT31;53678;39.642;22.430;2024-01-15T07:18:23;3.83;82.15
65478;SHT31;53678;39.642;22.430;2024-01-15T07:20:50;3.83;81.74
65478;SHT31;53678;39.642;22.430;2024-01-15T07:23:16;3.85;82.03
65478;SHT31;53678;39.642;22.430;2024-01-15T07:25:43;3.83;81.85
65478;SHT31;53678;39.642;22.430;2024-01-15T07:28:09;3.86;81.97
65478;SHT31;53678;39.642;22.430;2024-01-15T07:30:35;3.96;81.50
65478;SHT31;53678;39.642;22.430;2024-01-15T07:33:00;4.04;81.34
65478;SHT31;53678;39.642;22.430;2024-01-15T07:35:26;4.11;81.20
65478;SHT31;53678;39.642;22.430;2024-01-15T07:37:52;4.20;80.97
65478;SHT31;53678;39.642;22.430;2024-01-15T07:40:17;4.36;80.61
65478;SHT31;53678;39.642;22.430;2024-01-15T07:42:43;4.52;80.56
65478;SHT31;53678;39.642;22.430;2024-01-15T07:45:10;4.72;80.23
65478;SHT31;53678;39.642;22.430;2024-01-15T07:47:36;4.89;79.54
65478;SHT31;53678;39.642;22.430;2024-01-15T07:50:03;5.03;79.29
65478;SHT31;53678;39.642;22.430;2024-01-15T07:52:30;5.18;78.37
65478;SHT31;53678;39.642;22.430;2024-01-15T07:54:56;5.26;77.84
65478;SHT31;53678;39.642;22.430;2024-01-15T07:57:22;5.37;78.64
65478;SHT31;53678;39.642;22.430;2024-01-15T07:59:49;5.19;80.38
65478;SHT31;53678;39.642;22.430;2024-01-15T08:02:15;5.98;78.99
65478;SHT31;53678;39.642;22.430;2024-01-15T08:04:41;6.13;76.64
65478;SHT31;53678;39.642;22.430;2024-01-15T08:07:06;7.16;82.64
65478;SHT31;53678;39.642;22.430;2024-01-15T08:09:33;7.59;76.93
65478;SHT31;53678;39.642;22.430;2024-01-15T08:11:59;7.15;72.90
65478;SHT31;53678;39.642;22.430;2024-01-15T08:14:25;7.14;73.33
65478;SHT31;53678;39.642;22.430;2024-01-15T08:16:51;6.97;73.03
65478;SHT31;53678;39.642;22.430;2024-01-15T08:19:16;6.85;74.07
65478;SHT31;53678;39.642;22.430;2024-01-15T08:21:45;6.81;73.64
65478;SHT31;53678;39.642;22.430;2024-01-15T08:24:11;6.70;74.46
65478;SHT31;53678;39.642;22.430;2024-01-15T08:26:38;7.14;75.15
65478;SHT31;53678;39.642;22.430;2024-01-15T08:29:04;6.81;74.75
65478;SHT31;53678;39.642;22.430;2024-01-15T08:31:29;6.41;78.64
65478;SHT31;53678;39.642;22.430;2024-01-15T08:33:55;6.49;78.10
65478;SHT31;53678;39.642;22.430;2024-01-15T08:36:21;6.67;77.53
65478;SHT31;53678;39.642;22.430;2024-01-15T08:38:47;6.54;77.16
65478;SHT31;53678;39.642;22.430;2024-01-15T08:41:13;6.49;77.75
65478;SHT31;53678;39.642;22.430;2024-01-15T08:43:39;6.51;79.53
65478;SHT31;53678;39.642;22.430;2024-01-15T08:46:05;6.58;78.80
65478;SHT31;53678;39.642;22.430;2024-01-15T08:48:33;6.85;77.46
65478;SHT31;53678;39.642;22.430;2024-01-15T08:50:58;6.81;76.87
65478;SHT31;53678;39.642;22.430;2024-01-15T08:53:24;6.89;76.65
65478;SHT31;53678;39.642;22.430;2024-01-15T08:55:50;6.83;76.39
65478;SHT31;53678;39.642;22.430;2024-01-15T08:58:17;6.77;75.91
65478;SHT31;53678;39.642;22.430;2024-01-15T09:00:43;6.95;75.66
65478;SHT31;53678;39.642;22.430;2024-01-15T09:03:08;7.28;74.59
65478;SHT31;53678;39.642;22.430;2024-01-15T09:05:34;7.43;73.89
65478;SHT31;53678;39.642;22.430;2024-01-15T09:08:00;7.32;72.89
65478;SHT31;53678;39.642;22.430;2024-01-15T09:10:26;7.42;72.13
65478;SHT31;53678;39.642;22.430;2024-01-15T09:12:51;7.16;71.22
65478;SHT31;53678;39.642;22.430;2024-01-15T09:15:17;7.05;72.77
65478;SHT31;53678;39.642;22.430;2024-01-15T09:17:43;7.09;73.03
65478;SHT31;53678;39.642;22.430;2024-01-15T09:20:09;6.81;72.95
65478;SHT31;53678;39.642;22.430;2024-01-15T09:22:37;6.46;73.73
65478;SHT31;53678;39.642;22.430;2024-01-15T09:25:05;6.09;75.44
65478;SHT31;53678;39.642;22.430;2024-01-15T09:27:30;6.25;75.13
65478;SHT31;53678;39.642;22.430;2024-01-15T09:29:58;6.44;74.82
65478;SHT31;53678;39.642;22.430;2024-01-15T09:32:23;6.29;75.69
65478;SHT31;53678;39.642;22.430;2024-01-15T09:34:49;6.20;75.15
65478;SHT31;53678;39.642;22.430;2024-01-15T09:37:15;6.50;74.18
65478;SHT31;53678;39.642;22.430;2024-01-15T09:39:41;7.07;73.26
65478;SHT31;53678;39.642;22.430;2024-01-15T09:42:07;7.23;71.98
65478;SHT31;53678;39.642;22.430;2024-01-15T09:44:34;7.59;71.02
65478;SHT31;53678;39.642;22.430;2024-01-15T09:47:01;7.80;71.62
65478;SHT31;53678;39.642;22.430;2024-01-15T09:49:27;7.59;71.98
65478;SHT31;53678;39.642;22.430;2024-01-15T09:51:53;7.65;72.65
65478;SHT31;53678;39.642;22.430;2024-01-15T09:54:20;7.74;72.61
65478;SHT31;53678;39.642;22.430;2024-01-15T09:56:47;7.45;73.38
65478;SHT31;53678;39.642;22.430;2024-01-15T09:59:16;7.62;74.59
65478;SHT31;53678;39.642;22.430;2024-01-15T10:01:44;7.76;74.57
65478;SHT31;53678;39.642;22.430;2024-01-15T10:04:11;7.29;74.86
65478;SHT31;53678;39.642;22.430;2024-01-15T10:06:38;7.42;75.11
65478;SHT31;53678;39.642;22.430;2024-01-15T10:09:06;7.43;74.58
65478;SHT31;53678;39.642;22.430;2024-01-15T10:11:33;7.39;74.68
65478;SHT31;53678;39.642;22.430;2024-01-15T10:13:59;7.63;74.52
65478;SHT31;53678;39.642;22.430;2024-01-15T10:16:25;7.88;73.00
65478;SHT31;53678;39.642;22.430;2024-01-15T10:18:51;7.70;72.85
65478;SHT31;53678;39.642;22.430;2024-01-15T10:21:16;7.73;73.31
65478;SHT31;53678;39.642;22.430;2024-01-15T10:23:42;7.83;73.53
65478;SHT31;53678;39.642;22.430;2024-01-15T10:26:08;7.81;74.01
65478;SHT31;53678;39.642;22.430;2024-01-15T10:28:34;7.76;73.66
65478;SHT31;53678;39.642;22.430;2024-01-15T10:31:00;7.98;74.40
65478;SHT31;53678;39.642;22.430;2024-01-15T10:33:27;8.11;74.39
65478;SHT31;53678;39.642;22.430;2024-01-15T10:35:57;8.21;75.08
65478;SHT31;53678;39.642;22.430;2024-01-15T10:38:24;8.28;75.54
65478;SHT31;53678;39.642;22.430;2024-01-15T10:40:53;8.18;75.36
65478;SHT31;53678;39.642;22.430;2024-01-15T10:43:19;8.21;74.89
65478;SHT31;53678;39.642;22.430;2024-01-15T10:45:50;8.46;74.35
65478;SHT31;53678;39.642;22.430;2024-01-15T10:48:18;8.52;73.79
65478;SHT31;53678;39.642;22.430;2024-01-15T10:50:46;8.56;74.03
65478;SHT31;53678;39.642;22.430;2024-01-15T10:53:14;8.55;74.04
65478;SHT31;53678;39.642;22.430;2024-01-15T10:55:41;8.48;73.60
65478;SHT31;53678;39.642;22.430;2024-01-15T10:58:09;8.46;74.43
65478;SHT31;53678;39.642;22.430;2024-01-15T11:00:37;8.75;73.43
65478;SHT31;53678;39.642;22.430;2024-01-15T11:03:05;8.62;73.27
65478;SHT31;53678;39.642;22.430;2024-01-15T11:05:38;8.60;73.85
65478;SHT31;53678;39.642;22.430;2024-01-15T11:08:08;8.66;73.04
65478;SHT31;53678;39.642;22.430;2024-01-15T11:10:44;8.72;73.10
65478;SHT31;53678;39.642;22.430;2024-01-15T11:13:19;8.60;71.97
65478;SHT31;53678;39.642;22.430;2024-01-15T11:15:55;8.70;72.09
65478;SHT31;53678;39.642;22.430;2024-01-15T11:18:22;8.84;71.64
65478;SHT31;53678;39.642;22.430;2024-01-15T11:23:45;8.53;73.45
65478;SHT31;53678;39.642;22.430;2024-01-15T11:26:46;8.66;73.43
65478;SHT31;53678;39.642;22.430;2024-01-15T11:34:21;8.48;74.16
65478;SHT31;53678;39.642;22.430;2024-01-15T11:37:09;8.72;73.95
65478;SHT31;53678;39.642;22.430;2024-01-15T11:39:42;8.67;73.34
65478;SHT31;53678;39.642;22.430;2024-01-15T11:42:10;8.73;73.34
65478;SHT31;53678;39.642;22.430;2024-01-15T11:44:39;8.76;73.89
65478;SHT31;53678;39.642;22.430;2024-01-15T11:47:07;8.75;73.74
65478;SHT31;53678;39.642;22.430;2024-01-15T11:52:20;8.55;74.33
65478;SHT31;53678;39.642;22.430;2024-01-15T11:55:22;8.65;74.40
65478;SHT31;53678;39.642;22.430;2024-01-15T11:57:52;8.59;73.63
65478;SHT31;53678;39.642;22.430;2024-01-15T12:00:22;8.44;74.19
65478;SHT31;53678;39.642;22.430;2024-01-15T12:02:48;8.48;74.61
65478;SHT31;53678;39.642;22.430;2024-01-15T12:05:16;8.49;74.80
65478;SHT31;53678;39.642;22.430;2024-01-15T12:07:43;8.53;74.87
65478;SHT31;53678;39.642;22.430;2024-01-15T12:10:10;8.50;75.15
65478;SHT31;53678;39.642;22.430;2024-01-15T12:15:11;8.52;75.28
65478;SHT31;53678;39.642;22.430;2024-01-15T12:17:38;8.53;74.82
65478;SHT31;53678;39.642;22.430;2024-01-15T12:20:07;8.49;74.93
65478;SHT31;53678;39.642;22.430;2024-01-15T12:22:33;8.44;75.42
65478;SHT31;53678;39.642;22.430;2024-01-15T12:25:00;8.41;75.92
65478;SHT31;53678;39.642;22.430;2024-01-15T12:27:25;8.38;76.45
65478;SHT31;53678;39.642;22.430;2024-01-15T12:29:53;8.39;76.66
65478;SHT31;53678;39.642;22.430;2024-01-15T12:32:19;9.58;82.49
65478;SHT31;53678;39.642;22.430;2024-01-15T12:34:48;10.17;77.31
65478;SHT31;53678;39.642;22.430;2024-01-15T12:37:14;9.83;74.01
65478;SHT31;53678;39.642;22.430;2024-01-15T12:39:43;9.30;75.19
65478;SHT31;53678;39.642;22.430;2024-01-15T12:42:10;9.00;76.59
65478;SHT31;53678;39.642;22.430;2024-01-15T12:44:36;8.86;77.36
65478;SHT31;53678;39.642;22.430;2024-01-15T12:47:06;8.75;78.47
65478;SHT31;53678;39.642;22.430;2024-01-15T12:49:32;8.63;78.11
65478;SHT31;53678;39.642;22.430;2024-01-15T12:51:59;8.52;78.21
65478;SHT31;53678;39.642;22.430;2024-01-15T12:54:25;8.53;78.96
65478;SHT31;53678;39.642;22.430;2024-01-15T12:56:52;8.49;79.38
65478;SHT31;53678;39.642;22.430;2024-01-15T12:59:18;8.42;79.49
65478;SHT31;53678;39.642;22.430;2024-01-15T13:01:45;8.38;79.97
65478;SHT31;53678;39.642;22.430;2024-01-15T13:04:11;8.32;80.42
65478;SHT31;53678;39.642;22.430;2024-01-15T13:06:37;8.28;80.66
65478;SHT31;53678;39.642;22.430;2024-01-15T13:09:04;8.26;80.89
65478;SHT31;53678;39.642;22.430;2024-01-15T13:11:32;8.26;81.22
65478;SHT31;53678;39.642;22.430;2024-01-15T13:13:59;8.18;81.63
65478;SHT31;53678;39.642;22.430;2024-01-15T13:16:26;8.20;81.96
65478;SHT31;53678;39.642;22.430;2024-01-15T13:18:54;8.18;81.97
65478;SHT31;53678;39.642;22.430;2024-01-15T13:21:23;8.15;82.40
65478;SHT31;53678;39.642;22.430;2024-01-15T13:23:50;8.12;82.74
65478;SHT31;53678;39.642;22.430;2024-01-15T13:26:17;8.11;83.07
65478;SHT31;53678;39.642;22.430;2024-01-15T13:28:44;8.14;83.10
65478;SHT31;53678;39.642;22.430;2024-01-15T13:31:11;8.14;83.11
65478;SHT31;53678;39.642;22.430;2024-01-15T13:33:38;8.15;83.34
65478;SHT31;53678;39.642;22.430;2024-01-15T13:36:05;8.17;83.51
65478;SHT31;53678;39.642;22.430;2024-01-15T13:38:34;8.20;83.45
65478;SHT31;53678;39.642;22.430;2024-01-15T13:41:04;8.18;83.66
65478;SHT31;53678;39.642;22.430;2024-01-15T13:43:33;8.20;83.54
65478;SHT31;53678;39.642;22.430;2024-01-15T13:46:00;8.22;83.64
65478;SHT31;53678;39.642;22.430;2024-01-15T13:48:26;8.22;83.73
65478;SHT31;53678;39.642;22.430;2024-01-15T13:50:52;8.24;83.50
65478;SHT31;53678;39.642;22.430;2024-01-15T13:53:18;8.22;83.54
65478;SHT31;53678;39.642;22.430;2024-01-15T13:55:46;8.26;83.45
65478;SHT31;53678;39.642;22.430;2024-01-15T13:58:13;8.22;83.55
65478;SHT31;53678;39.642;22.430;2024-01-15T14:00:41;8.22;83.71
65478;SHT31;53678;39.642;22.430;2024-01-15T14:03:08;8.22;83.71
65478;SHT31;53678;39.642;22.430;2024-01-15T14:05:34;8.24;83.75
65478;SHT31;53678;39.642;22.430;2024-01-15T14:08:00;8.22;83.82
65478;SHT31;53678;39.642;22.430;2024-01-15T14:10:26;8.18;83.86
65478;SHT31;53678;39.642;22.430;2024-01-15T14:12:53;8.14;84.11
65478;SHT31;53678;39.642;22.430;2024-01-15T14:15:20;8.12;84.27
65478;SHT31;53678;39.642;22.430;2024-01-15T14:17:47;8.12;84.45
65478;SHT31;53678;39.642;22.430;2024-01-15T14:20:14;8.09;84.41
65478;SHT31;53678;39.642;22.430;2024-01-15T14:22:40;8.08;84.64
65478;SHT31;53678;39.642;22.430;2024-01-15T14:25:07;8.09;85.78
65478;SHT31;53678;39.642;22.430;2024-01-15T14:27:33;8.09;85.75
65478;SHT31;53678;39.642;22.430;2024-01-15T14:30:00;8.05;85.59
65478;SHT31;53678;39.642;22.430;2024-01-15T14:32:26;8.01;85.10
65478;SHT31;53678;39.642;22.430;2024-01-15T14:34:52;8.01;85.54
65478;SHT31;53678;39.642;22.430;2024-01-15T14:37:18;7.99;86.63
65478;SHT31;53678;39.642;22.430;2024-01-15T14:39:44;8.01;88.10
65478;SHT31;53678;39.642;22.430;2024-01-15T14:42:09;7.98;88.97
65478;SHT31;53678;39.642;22.430;2024-01-15T14:44:36;8.02;88.06
65478;SHT31;53678;39.642;22.430;2024-01-15T14:47:04;7.95;87.60
65478;SHT31;53678;39.642;22.430;2024-01-15T14:49:31;7.88;87.78
65478;SHT31;53678;39.642;22.430;2024-01-15T14:51:58;7.87;88.99
65478;SHT31;53678;39.642;22.430;2024-01-15T14:54:23;7.83;89.53
65478;SHT31;53678;39.642;22.430;2024-01-15T14:56:50;7.78;89.73
65478;SHT31;53678;39.642;22.430;2024-01-15T14:59:15;7.84;90.38
65478;SHT31;53678;39.642;22.430;2024-01-15T15:01:41;7.81;90.40
65478;SHT31;53678;39.642;22.430;2024-01-15T15:04:07;7.83;90.49
65478;SHT31;53678;39.642;22.430;2024-01-15T15:06:33;7.70;89.80
65478;SHT31;53678;39.642;22.430;2024-01-15T15:08:59;7.77;90.14
65478;SHT31;53678;39.642;22.430;2024-01-15T15:11:26;7.73;91.02
65478;SHT31;53678;39.642;22.430;2024-01-15T15:13:52;7.70;91.95
65478;SHT31;53678;39.642;22.430;2024-01-15T15:16:18;7.65;92.38
65478;SHT31;53678;39.642;22.430;2024-01-15T15:18:44;7.65;92.28
65478;SHT31;53678;39.642;22.430;2024-01-15T15:21:11;7.60;92.10
65478;SHT31;53678;39.642;22.430;2024-01-15T15:23:38;7.60;91.87
65478;SHT31;53678;39.642;22.430;2024-01-15T15:26:04;7.59;91.85
65478;SHT31;53678;39.642;22.430;2024-01-15T15:28:32;7.59;91.95
65478;SHT31;53678;39.642;22.430;2024-01-15T15:31:00;7.57;92.09
65478;SHT31;53678;39.642;22.430;2024-01-15T15:33:30;7.53;92.44
65478;SHT31;53678;39.642;22.430;2024-01-15T15:35:56;7.55;92.59
65478;SHT31;53678;39.642;22.430;2024-01-15T15:38:23;7.52;92.51
65478;SHT31;53678;39.642;22.430;2024-01-15T15:40:48;7.52;92.53